createdAt,value
2018-11-23T00:00:32.092Z,100176.70
2018-11-23T00:03:03.017Z,100181.93
2018-11-23T00:05:32.411Z,100180.30
2018-11-23T00:08:01.764Z,100179.86
2018-11-23T00:10:32.147Z,100178.55
2018-11-23T00:13:02.630Z,100182.88
2018-11-23T00:15:31.282Z,100185.93
2018-11-23T00:18:00.443Z,100187.63
2018-11-23T00:20:31.086Z,100181.48
2018-11-23T00:23:00.446Z,100184.18
2018-11-23T00:25:30.823Z,100181.14
2018-11-23T00:27:59.650Z,100186.83
2018-11-23T00:30:31.338Z,100185.09
2018-11-23T00:33:00.472Z,100187.13
2018-11-23T00:35:31.371Z,100191.11
2018-11-23T00:38:02.451Z,100189.42
2018-11-23T00:40:33.815Z,100194.22
2018-11-23T00:43:02.708Z,100190.72
2018-11-23T00:45:32.747Z,100188.47
2018-11-23T00:48:02.799Z,100187.22
2018-11-23T00:50:32.003Z,100181.59
2018-11-23T00:53:05.267Z,100182.79
2018-11-23T00:55:37.122Z,100182.34
2018-11-23T00:58:05.680Z,100181.49
2018-11-23T01:00:35.152Z,100185.82
2018-11-23T01:03:04.987Z,100188.91
2018-11-23T01:05:34.059Z,100188.81
2018-11-23T01:08:02.686Z,100187.52
2018-11-23T01:10:31.521Z,100182.79
2018-11-23T01:13:00.227Z,100189.26
2018-11-23T01:15:28.753Z,100187.87
2018-11-23T01:17:57.336Z,100188.70
2018-11-23T01:20:27.151Z,100193.44
2018-11-23T01:22:56.321Z,100189.94
2018-11-23T01:25:25.906Z,100190.78
2018-11-23T01:27:55.272Z,100189.03
2018-11-23T01:30:25.122Z,100190.22
2018-11-23T01:32:53.692Z,100195.85
2018-11-23T01:35:22.238Z,100186.78
2018-11-23T01:37:50.875Z,100183.19
2018-11-23T01:40:22.331Z,100181.03
2018-11-23T01:42:50.825Z,100130.14
2018-11-23T01:45:19.447Z,100184.47
2018-11-23T01:47:47.988Z,100182.72
2018-11-23T01:50:18.592Z,100182.23
2018-11-23T01:52:48.276Z,100182.61
2018-11-23T01:55:17.604Z,100185.59
2018-11-23T01:57:46.644Z,100186.49
2018-11-23T02:00:30.616Z,100184.70
2018-11-23T02:02:59.178Z,100182.00
2018-11-23T02:05:27.721Z,100182.05
2018-11-23T02:07:56.262Z,100178.61
2018-11-23T02:10:24.776Z,100182.95
2018-11-23T02:12:53.333Z,100184.30
2018-11-23T02:15:22.733Z,100186.83
2018-11-23T02:17:51.561Z,100180.35
2018-11-23T02:20:21.021Z,100186.00
2018-11-23T02:22:49.535Z,100190.83
2018-11-23T02:25:18.103Z,100185.98
2018-11-23T02:27:46.661Z,100192.53
2018-11-23T02:30:17.972Z,100186.89
2018-11-23T02:32:46.605Z,100186.89
2018-11-23T02:35:15.791Z,100189.03
2018-11-23T02:37:44.365Z,100188.12
2018-11-23T02:40:14.116Z,100193.31
2018-11-23T02:42:42.732Z,100191.96
2018-11-23T02:45:14.897Z,100193.66
2018-11-23T02:47:44.408Z,100196.23
2018-11-23T02:50:13.008Z,100188.41
2018-11-23T02:52:42.022Z,100190.94
2018-11-23T02:55:11.984Z,100193.55
2018-11-23T02:57:40.547Z,100186.59
2018-11-23T03:00:13.256Z,100189.19
2018-11-23T03:02:41.876Z,100183.50
2018-11-23T03:05:13.268Z,100179.08
2018-11-23T03:07:42.340Z,100178.17
2018-11-23T03:10:12.287Z,100178.58
2018-11-23T03:12:41.803Z,100181.22
2018-11-23T03:15:12.164Z,99975.19
2018-11-23T03:17:40.922Z,100181.61
2018-11-23T03:20:13.490Z,100179.40
2018-11-23T03:22:42.116Z,100175.47
2018-11-23T03:25:11.636Z,100173.26
2018-11-23T03:27:40.227Z,100173.66
2018-11-23T03:30:15.207Z,100170.62
2018-11-23T03:32:44.289Z,100174.10
2018-11-23T03:35:12.977Z,100166.28
2018-11-23T03:37:41.601Z,100162.80
2018-11-23T03:40:10.159Z,100159.30
2018-11-23T03:42:38.695Z,100161.88
2018-11-23T03:45:09.133Z,100160.93
2018-11-23T03:47:37.798Z,100167.39
2018-11-23T03:50:07.322Z,100161.31
2018-11-23T03:52:35.872Z,100168.58
2018-11-23T03:55:04.554Z,100167.28
2018-11-23T03:57:33.072Z,100169.88
2018-11-23T04:00:01.564Z,100162.95
2018-11-23T04:02:30.097Z,100164.67
2018-11-23T04:04:58.765Z,100163.33
2018-11-23T04:07:27.307Z,100163.73
2018-11-23T04:09:55.796Z,100168.05
2018-11-23T04:12:24.330Z,100161.08
2018-11-23T04:14:52.927Z,100151.51
2018-11-23T04:17:21.420Z,100161.02
2018-11-23T04:19:49.953Z,100160.11
2018-11-23T04:22:19.258Z,100160.56
2018-11-23T04:24:47.236Z,100161.88
2018-11-23T04:27:15.819Z,100164.38
2018-11-23T04:29:44.353Z,100155.78
2018-11-23T04:32:12.926Z,100158.87
2018-11-23T04:34:41.463Z,100157.19
2018-11-23T04:37:09.988Z,100147.22
2018-11-23T04:39:38.480Z,100149.37
2018-11-23T04:42:07.031Z,100139.91
2018-11-23T04:44:35.595Z,100135.95
2018-11-23T04:47:04.201Z,100151.03
2018-11-23T04:49:32.758Z,100147.16
2018-11-23T04:52:01.343Z,100144.56
2018-11-23T04:54:30.004Z,100147.61
2018-11-23T04:56:58.636Z,100143.27
2018-11-23T04:59:27.231Z,100148.97
2018-11-23T05:01:55.791Z,100155.05
2018-11-23T05:04:24.555Z,100156.41
2018-11-23T05:06:53.096Z,100153.02
2018-11-23T05:09:21.708Z,100151.39
2018-11-23T05:11:50.381Z,100149.33
2018-11-23T05:14:18.995Z,100147.31
2018-11-23T05:16:47.560Z,100137.06
2018-11-23T05:19:16.100Z,100132.45
2018-11-23T05:21:44.634Z,100137.44
2018-11-23T05:24:13.233Z,100133.22
2018-11-23T05:26:41.815Z,100141.09
2018-11-23T05:29:10.445Z,100136.78
2018-11-23T05:31:38.978Z,100137.28
2018-11-23T05:34:07.537Z,100139.87
2018-11-23T05:36:36.081Z,100137.27
2018-11-23T05:39:06.345Z,100138.17
2018-11-23T05:41:34.890Z,100126.51
2018-11-23T05:44:03.476Z,100135.19
2018-11-23T05:46:32.130Z,100126.07
2018-11-23T05:49:00.665Z,100127.36
2018-11-23T05:51:29.259Z,100125.62
2018-11-23T05:53:57.888Z,100128.20
2018-11-23T05:56:26.463Z,100129.00
2018-11-23T05:58:55.039Z,100128.55
2018-11-23T06:01:23.639Z,100132.44
2018-11-23T06:03:52.230Z,100132.88
2018-11-23T06:06:20.837Z,100126.90
2018-11-23T06:08:49.495Z,100123.53
2018-11-23T06:11:18.080Z,100129.16
2018-11-23T06:13:46.816Z,100126.62
2018-11-23T06:16:15.391Z,100124.04
2018-11-23T06:18:44.040Z,100121.45
2018-11-23T06:21:12.762Z,100123.59
2018-11-23T06:23:41.417Z,100128.36
2018-11-23T06:26:16.269Z,100114.95
2018-11-23T06:28:45.101Z,100112.77
2018-11-23T06:31:13.953Z,100050.63
2018-11-23T06:33:44.799Z,99867.26
2018-11-23T06:36:13.352Z,100114.41
2018-11-23T06:38:42.858Z,100116.55
2018-11-23T06:41:11.581Z,100120.88
2018-11-23T06:43:40.179Z,100123.47
2018-11-23T06:46:09.979Z,100129.48
2018-11-23T06:48:38.561Z,100133.78
2018-11-23T06:51:07.366Z,100142.45
2018-11-23T06:53:35.985Z,100140.20
2018-11-23T06:56:05.094Z,100131.53
2018-11-23T06:58:33.740Z,100134.12
2018-11-23T07:01:02.292Z,100131.25
2018-11-23T07:03:30.939Z,100128.32
2018-11-23T07:06:00.108Z,100135.75
2018-11-23T07:11:14.094Z,100134.17
2018-11-23T07:13:42.713Z,100132.48
2018-11-23T07:16:17.920Z,100136.02
2018-11-23T07:18:46.684Z,100136.52
2018-11-23T07:21:21.243Z,100136.59
2018-11-23T07:23:44.171Z,100137.92
2018-11-23T07:26:13.018Z,100143.22
2018-11-23T07:28:41.538Z,100135.48
2018-11-23T07:31:10.393Z,100145.95
2018-11-23T07:33:39.052Z,100153.00
2018-11-23T07:36:07.671Z,100153.11
2018-11-23T07:38:36.330Z,100153.59
2018-11-23T07:41:16.240Z,100145.52
2018-11-23T07:43:44.859Z,100152.06
2018-11-23T07:46:13.515Z,100150.06
2018-11-23T07:48:42.076Z,100146.77
2018-11-23T07:51:10.873Z,100142.31
2018-11-23T07:53:39.500Z,100141.95
2018-11-23T07:56:08.204Z,100136.80
2018-11-23T07:58:36.787Z,100137.98
2018-11-23T08:01:05.407Z,100132.71
2018-11-23T08:03:33.883Z,100131.05
2018-11-23T08:06:02.508Z,100135.17
2018-11-23T08:08:31.042Z,100130.77
2018-11-23T08:10:58.643Z,100128.73
2018-11-23T08:13:27.145Z,100129.97
2018-11-23T08:15:55.752Z,100131.05
2018-11-23T08:18:24.365Z,100134.58
2018-11-23T08:20:52.852Z,100128.37
2018-11-23T08:23:21.334Z,100126.27
2018-11-23T08:25:50.026Z,100125.91
2018-11-23T08:28:18.505Z,100125.91
2018-11-23T08:30:47.101Z,100127.63
2018-11-23T08:33:15.621Z,100126.20
2018-11-23T08:35:44.267Z,100127.16
2018-11-23T08:38:12.833Z,100122.05
2018-11-23T08:40:41.518Z,100118.73
2018-11-23T08:43:10.116Z,100116.19
2018-11-23T08:45:38.731Z,100118.34
2018-11-23T08:48:07.347Z,100121.71
2018-11-23T08:50:36.063Z,100131.39
2018-11-23T08:53:04.630Z,100124.84
2018-11-23T08:55:33.285Z,100125.16
2018-11-23T08:58:01.913Z,100127.92
2018-11-23T09:00:30.436Z,100126.42
2018-11-23T09:03:00.435Z,100103.00
2018-11-23T09:05:28.947Z,100123.74
2018-11-23T09:07:57.963Z,100116.31
2018-11-23T09:10:28.440Z,100116.10
2018-11-23T09:12:59.684Z,100121.01
2018-11-23T09:15:28.339Z,100123.50
2018-11-23T09:17:56.944Z,100111.96
2018-11-23T09:20:25.496Z,100116.73
2018-11-23T09:22:54.214Z,100119.30
2018-11-23T09:25:23.631Z,100117.80
2018-11-23T09:27:53.754Z,100114.78
2018-11-23T09:30:23.759Z,100204.06
2018-11-23T09:32:53.511Z,100111.81
2018-11-23T09:35:22.125Z,100115.07
2018-11-23T09:37:51.631Z,100112.34
2018-11-23T09:40:21.359Z,100106.20
2018-11-23T09:42:50.211Z,100103.12
2018-11-23T09:45:21.968Z,100099.58
2018-11-23T09:47:51.607Z,100102.45
2018-11-23T09:50:21.269Z,100097.58
2018-11-23T09:52:50.940Z,100098.92
2018-11-23T09:55:20.233Z,100100.36
2018-11-23T09:57:48.845Z,100098.50
2018-11-23T10:00:20.834Z,100094.28
2018-11-23T10:02:52.411Z,100095.43
2018-11-23T10:05:21.513Z,100091.84
2018-11-23T10:07:54.105Z,100085.48
2018-11-23T10:10:23.413Z,100084.55
2018-11-23T10:12:51.904Z,100078.66
2018-11-23T10:15:21.269Z,100078.84
2018-11-23T10:17:49.783Z,100071.45
2018-11-23T10:20:24.737Z,100069.25
2018-11-23T10:22:53.894Z,100063.02
2018-11-23T10:25:24.716Z,100074.31
2018-11-23T10:27:53.712Z,100064.67
2018-11-23T10:30:25.882Z,100061.70
2018-11-23T10:32:57.114Z,100070.88
2018-11-23T10:35:26.188Z,100057.87
2018-11-23T10:37:56.260Z,99671.30
2018-11-23T10:40:26.430Z,100055.92
2018-11-23T10:42:55.110Z,100048.34
2018-11-23T10:45:25.363Z,100045.84
2018-11-23T10:47:54.887Z,100042.77
2018-11-23T10:50:24.930Z,100040.17
2018-11-23T10:52:53.950Z,100034.07
2018-11-23T10:55:23.904Z,100030.35
2018-11-23T10:57:53.010Z,100025.63
2018-11-23T11:00:26.843Z,100022.19
2018-11-23T11:03:00.887Z,100038.30
2018-11-23T11:05:34.797Z,100026.50
2018-11-23T11:08:04.229Z,100024.58
2018-11-23T11:10:32.977Z,100019.89
2018-11-23T11:13:01.694Z,100021.69
2018-11-23T11:15:30.335Z,100016.25
2018-11-23T11:17:59.001Z,100010.66
2018-11-23T11:20:27.784Z,100003.75
2018-11-23T11:22:56.722Z,100002.53
2018-11-23T11:25:25.392Z,99998.03
2018-11-23T11:27:54.213Z,100002.03
2018-11-23T11:30:22.971Z,99995.98
2018-11-23T11:32:51.708Z,99982.98
2018-11-23T11:35:20.449Z,99977.75
2018-11-23T11:37:49.307Z,99973.34
2018-11-23T11:40:18.981Z,99968.00
2018-11-23T11:42:47.617Z,99973.56
2018-11-23T11:45:17.521Z,99961.70
2018-11-23T11:47:46.872Z,99965.47
2018-11-23T11:50:15.876Z,99961.66
2018-11-23T11:52:46.343Z,99958.44
2018-11-23T11:55:18.675Z,99954.78
2018-11-23T11:57:47.864Z,99949.27
2018-11-23T12:00:18.921Z,99947.58
2018-11-23T12:02:48.069Z,99952.41
2018-11-23T12:05:16.676Z,99941.83
2018-11-23T12:07:45.448Z,99942.21
2018-11-23T12:10:19.196Z,99937.09
2018-11-23T12:12:47.756Z,99934.89
2018-11-23T12:15:16.833Z,99931.08
2018-11-23T12:17:45.357Z,99923.19
2018-11-23T12:20:15.754Z,99925.38
2018-11-23T12:22:44.779Z,99916.72
2018-11-23T12:25:14.082Z,99914.84
2018-11-23T12:27:42.761Z,99911.47
2018-11-23T12:30:14.257Z,99909.54
2018-11-23T12:32:43.850Z,99899.31
2018-11-23T12:35:13.770Z,99898.42
2018-11-23T12:37:42.493Z,99893.74
2018-11-23T12:40:12.621Z,99890.40
2018-11-23T12:42:41.380Z,99884.64
2018-11-23T12:45:12.350Z,99890.30
2018-11-23T12:47:41.032Z,99885.09
2018-11-23T12:50:15.821Z,99886.51
2018-11-23T12:52:44.544Z,99891.03
2018-11-23T12:55:14.103Z,99881.98
2018-11-23T12:57:43.121Z,99885.13
2018-11-23T13:00:23.024Z,99877.78
2018-11-23T13:03:00.119Z,99879.55
2018-11-23T13:05:29.691Z,99885.05
2018-11-23T13:08:04.275Z,99888.14
2018-11-23T13:10:34.096Z,99890.64
2018-11-23T13:13:07.043Z,99887.84
2018-11-23T13:15:37.132Z,99878.27
2018-11-23T13:18:07.401Z,99877.84
2018-11-23T13:20:36.392Z,99875.80
2018-11-23T13:23:05.673Z,99874.19
2018-11-23T13:25:35.088Z,99868.27
2018-11-23T13:28:04.381Z,99866.72
2018-11-23T13:30:37.212Z,99884.48
2018-11-23T13:33:07.194Z,99866.95
2018-11-23T13:35:36.501Z,99869.45
2018-11-23T13:38:05.834Z,99861.06
2018-11-23T13:40:34.965Z,99860.00
2018-11-23T13:43:03.695Z,99858.81
2018-11-23T13:45:33.448Z,99855.59
2018-11-23T13:48:02.070Z,99852.88
2018-11-23T13:50:31.185Z,99844.94
2018-11-23T13:53:01.235Z,99841.41
2018-11-23T13:55:29.896Z,99844.73
2018-11-23T13:57:58.673Z,99844.47
2018-11-23T14:00:29.109Z,99844.20
2018-11-23T14:02:57.903Z,99842.10
2018-11-23T14:05:28.473Z,99840.08
2018-11-23T14:07:58.676Z,99837.57
2018-11-23T14:10:28.248Z,99840.38
2018-11-23T14:12:57.210Z,99836.25
2018-11-23T14:15:27.187Z,99833.34
2018-11-23T14:17:57.002Z,99824.77
2018-11-23T14:20:26.390Z,99822.36
2018-11-23T14:22:55.243Z,99824.78
2018-11-23T14:25:25.388Z,99822.45
2018-11-23T14:27:54.901Z,99821.86
2018-11-23T14:30:25.418Z,99814.28
2018-11-23T14:32:54.250Z,99817.33
2018-11-23T14:35:25.376Z,99809.23
2018-11-23T14:37:55.188Z,99807.65
2018-11-23T14:40:23.987Z,99802.48
2018-11-23T14:42:53.397Z,99804.31
2018-11-23T14:45:25.663Z,99782.88
2018-11-23T14:47:55.436Z,99795.95
2018-11-23T14:50:25.862Z,99794.44
2018-11-23T14:52:55.600Z,99790.68
2018-11-23T14:55:24.491Z,99788.30
2018-11-23T14:57:53.893Z,99789.81
2018-11-23T15:00:25.505Z,99789.94
2018-11-23T15:02:55.669Z,99788.76
2018-11-23T15:05:24.352Z,99790.23
2018-11-23T15:07:52.989Z,99795.22
2018-11-23T15:10:23.131Z,99797.94
2018-11-23T15:12:53.301Z,99797.23
2018-11-23T15:15:23.356Z,99799.66
2018-11-23T15:17:52.728Z,99794.58
2018-11-23T15:20:26.441Z,99796.91
2018-11-23T15:22:57.116Z,99801.59
2018-11-23T15:25:25.832Z,99797.02
2018-11-23T15:27:54.708Z,99798.12
2018-11-23T15:30:25.573Z,99794.84
2018-11-23T15:32:54.616Z,99794.99
2018-11-23T15:35:23.309Z,99801.73
2018-11-23T15:37:52.158Z,99793.96
2018-11-23T15:40:23.328Z,99798.05
2018-11-23T15:42:53.588Z,99798.64
2018-11-23T15:45:23.681Z,99792.23
2018-11-23T15:47:52.629Z,99817.75
2018-11-23T15:50:22.896Z,99788.55
2018-11-23T15:52:51.734Z,99786.06
2018-11-23T15:55:22.663Z,99785.78
2018-11-23T15:57:52.274Z,99786.82
2018-11-23T16:00:24.402Z,99783.48
2018-11-23T16:02:53.958Z,99781.01
2018-11-23T16:05:22.994Z,99777.63
2018-11-23T16:07:52.724Z,99776.91
2018-11-23T16:10:28.041Z,99782.27
2018-11-23T16:12:58.019Z,99777.12
2018-11-23T16:15:28.482Z,99777.63
2018-11-23T16:17:57.930Z,99779.04
2018-11-23T16:20:29.466Z,99778.68
2018-11-23T16:23:00.040Z,99781.37
2018-11-23T16:25:29.015Z,99777.54
2018-11-23T16:28:00.461Z,99778.52
2018-11-23T16:30:31.613Z,99778.58
2018-11-23T16:33:01.538Z,99778.20
2018-11-23T16:35:32.699Z,99780.45
2018-11-23T16:38:03.064Z,99780.06
2018-11-23T16:40:32.853Z,99775.33
2018-11-23T16:43:02.237Z,99772.77
2018-11-23T16:45:32.349Z,99774.58
2018-11-23T16:48:02.575Z,99772.42
2018-11-23T16:50:32.041Z,99776.39
2018-11-23T16:53:00.915Z,99779.05
2018-11-23T16:55:30.535Z,99762.11
2018-11-23T16:58:01.405Z,99765.61
2018-11-23T17:00:31.472Z,99761.75
2018-11-23T17:03:01.658Z,99767.02
2018-11-23T17:05:32.019Z,99768.83
2018-11-23T17:08:00.922Z,99764.51
2018-11-23T17:10:32.161Z,99783.70
2018-11-23T17:13:00.813Z,99766.73
2018-11-23T17:15:29.983Z,99767.22
2018-11-23T17:17:58.724Z,99762.89
2018-11-23T17:20:33.560Z,99755.50
2018-11-23T17:23:03.674Z,99755.08
2018-11-23T17:25:32.702Z,99755.53
2018-11-23T17:28:03.179Z,99753.77
2018-11-23T17:30:32.815Z,99760.75
2018-11-23T17:33:01.767Z,99762.09
2018-11-23T17:35:30.565Z,99762.54
2018-11-23T17:37:59.242Z,99760.38
2018-11-23T17:40:29.493Z,99762.11
2018-11-23T17:42:58.528Z,99761.72
2018-11-23T17:45:29.014Z,99759.98
2018-11-23T17:47:57.761Z,99759.09
2018-11-23T17:50:27.849Z,99690.05
2018-11-23T17:52:57.116Z,99756.93
2018-11-23T17:55:25.902Z,99753.45
2018-11-23T17:57:55.386Z,99448.28
2018-11-23T18:00:26.452Z,99758.28
2018-11-23T18:02:55.985Z,99754.81
2018-11-23T18:05:25.577Z,99750.90
2018-11-23T18:07:54.725Z,99746.97
2018-11-23T18:10:27.707Z,99750.46
2018-11-23T18:12:57.308Z,99743.07
2018-11-23T18:15:27.904Z,99734.37
2018-11-23T18:17:57.552Z,99729.14
2018-11-23T18:20:27.056Z,99728.31
2018-11-23T18:22:56.560Z,99720.91
2018-11-23T18:25:40.831Z,99718.35
2018-11-23T18:28:09.453Z,99713.56
2018-11-23T18:30:38.090Z,99713.59
2018-11-23T18:33:08.469Z,99714.51
2018-11-23T18:35:37.269Z,99701.02
2018-11-23T18:38:06.004Z,99695.37
2018-11-23T18:40:37.553Z,99700.61
2018-11-23T18:43:05.074Z,99688.85
2018-11-23T18:45:35.531Z,99681.89
2018-11-23T18:48:05.203Z,99683.21
2018-11-23T18:50:35.443Z,99679.75
2018-11-23T18:53:06.495Z,99670.63
2018-11-23T18:55:35.689Z,99667.59
2018-11-23T18:58:05.008Z,99664.98
2018-11-23T19:00:34.041Z,99668.46
2018-11-23T19:03:03.487Z,99661.97
2018-11-23T19:05:32.243Z,99661.97
2018-11-23T19:08:01.124Z,99654.58
2018-11-23T19:10:30.076Z,99648.92
2018-11-23T19:12:59.502Z,99651.10
2018-11-23T19:15:29.210Z,99645.48
2018-11-23T19:18:11.314Z,99651.59
2018-11-23T19:20:40.319Z,99653.31
2018-11-23T19:23:09.640Z,99650.72
2018-11-23T19:25:38.281Z,99649.83
2018-11-23T19:28:07.722Z,99638.54
2018-11-23T19:30:36.698Z,99644.61
2018-11-23T19:33:05.396Z,99643.74
2018-11-23T19:35:35.769Z,99639.41
2018-11-23T19:38:04.642Z,99636.38
2018-11-23T19:40:33.609Z,99635.52
2018-11-23T19:43:02.779Z,99639.41
2018-11-23T19:45:31.756Z,99637.66
2018-11-23T19:48:00.372Z,99632.91
2018-11-23T19:50:28.882Z,99639.43
2018-11-23T19:52:57.588Z,99633.75
2018-11-23T19:55:26.372Z,99630.73
2018-11-23T19:57:55.390Z,99632.02
2018-11-23T20:00:25.560Z,99627.69
2018-11-23T20:02:54.829Z,99631.59
2018-11-23T20:05:23.622Z,99622.05
2018-11-23T20:07:55.155Z,99617.70
2018-11-23T20:10:24.580Z,99622.05
2018-11-23T20:12:56.159Z,99621.59
2018-11-23T20:15:25.917Z,99619.87
2018-11-23T20:17:54.655Z,99616.38
2018-11-23T20:20:24.532Z,99618.98
2018-11-23T20:22:53.365Z,99609.45
2018-11-23T20:25:21.944Z,99609.44
2018-11-23T20:27:51.732Z,99610.73
2018-11-23T20:30:20.486Z,99615.50
2018-11-23T20:32:49.082Z,99610.73
2018-11-23T20:35:18.765Z,99604.20
2018-11-23T20:37:47.877Z,99598.56
2018-11-23T20:40:18.692Z,99596.83
2018-11-23T20:42:47.618Z,99592.47
2018-11-23T20:45:16.482Z,99584.67
2018-11-23T20:47:45.407Z,99585.55
2018-11-23T20:50:15.173Z,99585.97
2018-11-23T20:52:43.814Z,99583.34
2018-11-23T20:55:13.648Z,99581.20
2018-11-23T20:57:42.223Z,99573.80
2018-11-23T21:00:13.256Z,99575.96
2018-11-23T21:02:41.928Z,99570.76
2018-11-23T21:05:12.198Z,99565.96
2018-11-23T21:07:40.796Z,99561.19
2018-11-23T21:10:20.484Z,99558.59
2018-11-23T21:12:44.633Z,99562.05
2018-11-23T21:15:30.818Z,99560.73
2018-11-23T21:18:02.603Z,99571.13
2018-11-23T21:20:31.224Z,99566.80
2018-11-23T21:22:59.804Z,99568.10
2018-11-23T21:25:28.392Z,99566.77
2018-11-23T21:27:56.990Z,99567.22
2018-11-23T21:30:25.586Z,99552.03
2018-11-23T21:32:55.316Z,99549.85
2018-11-23T21:35:23.912Z,99546.37
2018-11-23T21:37:52.506Z,99547.25
2018-11-23T21:40:21.083Z,99546.80
2018-11-23T21:42:49.742Z,99545.50
2018-11-23T21:45:19.595Z,99546.34
2018-11-23T21:47:49.419Z,99534.63
2018-11-23T21:50:25.023Z,99533.73
2018-11-23T21:52:48.647Z,99533.31
2018-11-23T21:55:20.443Z,99528.55
2018-11-23T21:57:49.105Z,99525.05
2018-11-23T22:00:17.738Z,99529.37
2018-11-23T22:02:46.362Z,99526.33
2018-11-23T22:05:14.927Z,99531.09
2018-11-23T22:07:43.528Z,99515.89
2018-11-23T22:10:14.348Z,99510.27
2018-11-23T22:12:43.020Z,99513.74
2018-11-23T22:15:13.610Z,99515.89
2018-11-23T22:17:42.149Z,99513.31
2018-11-23T22:20:14.519Z,99440.72
2018-11-23T22:22:43.074Z,99502.02
2018-11-23T22:25:14.799Z,99506.34
2018-11-23T22:27:43.525Z,99502.88
2018-11-23T22:30:13.468Z,99498.55
2018-11-23T22:32:41.995Z,99500.27
2018-11-23T22:35:11.456Z,99495.09
2018-11-23T22:37:39.979Z,99493.31
2018-11-23T22:40:18.951Z,99496.78
2018-11-23T22:42:48.601Z,99495.06
2018-11-23T22:45:17.594Z,99494.59
2018-11-23T22:47:46.096Z,99493.31
2018-11-23T22:50:17.585Z,99489.84
2018-11-23T22:52:46.091Z,99485.50
2018-11-23T22:55:15.569Z,99480.75
2018-11-23T22:57:44.108Z,99484.22
2018-11-23T23:00:26.453Z,99478.13
2018-11-23T23:02:54.951Z,99474.63
2018-11-23T23:05:24.400Z,99468.13
2018-11-23T23:07:52.878Z,99473.74
2018-11-23T23:10:21.368Z,99472.86
2018-11-23T23:12:49.819Z,99467.64
2018-11-23T23:15:18.361Z,99463.73
2018-11-23T23:17:46.812Z,99459.37
2018-11-23T23:20:18.652Z,99453.30
2018-11-23T23:22:47.054Z,99450.25
2018-11-23T23:25:15.571Z,99451.98
2018-11-23T23:27:44.131Z,99453.26
2018-11-23T23:30:13.679Z,99450.64
2018-11-23T23:32:42.253Z,99441.52
2018-11-23T23:35:12.033Z,99448.86
2018-11-23T23:37:40.833Z,99446.67
2018-11-23T23:40:12.340Z,99448.42
2018-11-23T23:42:40.890Z,99450.08
2018-11-23T23:45:11.481Z,99449.22
2018-11-23T23:47:40.009Z,99451.39
2018-11-23T23:50:15.066Z,99454.84
2018-11-23T23:52:43.545Z,99446.16
2018-11-23T23:55:12.131Z,99438.80
2018-11-23T23:57:41.691Z,99439.22
